Ardsley, New York
Current Conditions -  °F | °C
As of 4:56 PM on Thursday 23 Oct 2014 (Local Time) from KHPN Reporting Station
Broken Clouds Broken Clouds  
Wind Chill: 50°   Ceiling: 1600
Heat Index: 50°   Visibility: 10mi
Dew Point: 44°   Wind: 23mph
Humidity: 80%   Direction: 330°NNW
Pressure: 29.69"   Gusts: 29mph
Location:  41.01°N, 73.84°W
Report Text: KHPN 232056Z 33020G25KT 10SM BKN016 BKN025 10/07 A2969 RMK AO2 PK WND 34032/2028 SLP055 P0001 60001 T01000067 53006
Loading
Personal Weather Stations






























Interactive Weather Map
Tropical Storm Tracking
New forecast layout! Learn more

10-Day Weather Forecast

Advertisements
Track Severe Weather on mobile